createdAt,value
2022-09-20T00:01:08.106Z,1.88
2022-09-20T00:03:36.648Z,1.42
2022-09-20T00:06:06.195Z,1.70
2022-09-20T00:08:34.449Z,1.00
2022-09-20T00:11:06.264Z,1.45
2022-09-20T00:13:35.504Z,1.50
2022-09-20T00:16:06.573Z,1.13
2022-09-20T00:18:34.650Z,1.75
2022-09-20T00:21:02.748Z,1.80
2022-09-20T00:23:31.327Z,2.20
2022-09-20T00:26:01.484Z,1.38
2022-09-20T00:28:31.175Z,1.50
2022-09-20T00:30:59.154Z,1.20
2022-09-20T00:33:48.364Z,1.67
2022-09-20T00:36:15.968Z,1.30
2022-09-20T00:38:44.153Z,1.20
2022-09-20T00:41:12.689Z,1.25
2022-09-20T00:43:43.658Z,1.27
2022-09-20T00:46:24.495Z,1.48
2022-09-20T00:48:56.318Z,1.75
2022-09-20T00:51:28.251Z,1.70
2022-09-20T00:53:59.177Z,1.63
2022-09-20T00:56:29.911Z,2.03
2022-09-20T00:59:04.861Z,1.73
2022-09-20T01:01:33.099Z,1.60
2022-09-20T01:04:02.213Z,1.17
2022-09-20T01:06:31.228Z,1.45
2022-09-20T01:09:02.916Z,2.15
2022-09-20T01:11:31.941Z,1.98
2022-09-20T01:14:01.190Z,1.33
2022-09-20T01:16:31.275Z,1.13
2022-09-20T01:19:02.541Z,2.08
2022-09-20T01:21:30.738Z,1.70
2022-09-20T01:24:06.510Z,1.20
2022-09-20T01:27:00.220Z,1.70
2022-09-20T01:29:41.805Z,1.25
2022-09-20T01:32:14.060Z,1.10
2022-09-20T01:34:47.713Z,1.60
2022-09-20T01:37:25.062Z,1.17
2022-09-20T01:40:03.467Z,1.63
2022-09-20T01:42:35.150Z,1.50
2022-09-20T01:45:12.346Z,1.35
2022-09-20T01:47:48.618Z,1.25
2022-09-20T01:50:28.535Z,1.10
2022-09-20T01:53:33.847Z,1.25
2022-09-20T01:56:22.478Z,1.70
2022-09-20T01:59:32.990Z,1.27
2022-09-20T02:02:19.808Z,1.60
2022-09-20T02:05:19.432Z,1.33
2022-09-20T02:08:06.382Z,1.23
2022-09-20T02:11:05.254Z,1.35
2022-09-20T02:13:45.032Z,1.13
2022-09-20T02:16:31.860Z,1.60
2022-09-20T02:19:27.623Z,1.00
2022-09-20T02:22:12.285Z,0.95
2022-09-20T02:24:46.912Z,1.02
2022-09-20T02:27:24.751Z,1.23
2022-09-20T02:30:04.667Z,1.50
2022-09-20T02:32:52.355Z,1.25
2022-09-20T02:35:33.878Z,1.40
2022-09-20T02:38:12.661Z,1.60
2022-09-20T02:41:10.484Z,1.45
2022-09-20T02:43:46.037Z,1.60
2022-09-20T02:46:22.272Z,1.00
2022-09-20T02:48:59.668Z,1.83
2022-09-20T02:51:36.975Z,2.20
2022-09-20T02:54:16.776Z,1.42
2022-09-20T02:56:53.172Z,1.55
2022-09-20T02:59:31.089Z,0.90
2022-09-20T03:02:09.003Z,1.25
2022-09-20T03:04:49.368Z,1.73
2022-09-20T03:07:31.271Z,0.95
2022-09-20T03:10:12.289Z,1.65
2022-09-20T03:12:55.152Z,1.75
2022-09-20T03:15:47.074Z,1.48
2022-09-20T03:18:18.489Z,1.48
2022-09-20T03:20:59.048Z,1.88
2022-09-20T03:23:46.060Z,1.50
2022-09-20T03:26:25.801Z,1.55
2022-09-20T03:29:04.129Z,1.40
2022-09-20T03:31:47.496Z,1.15
2022-09-20T03:34:31.592Z,1.95
2022-09-20T03:37:14.439Z,2.17
2022-09-20T03:40:14.009Z,2.28
2022-09-20T03:42:47.407Z,1.95
2022-09-20T03:46:04.321Z,1.92
2022-09-20T03:48:59.539Z,1.83
2022-09-20T03:51:34.518Z,1.67
2022-09-20T03:54:40.567Z,2.03
2022-09-20T03:57:36.188Z,1.40
2022-09-20T04:00:20.846Z,1.20
2022-09-20T04:03:23.035Z,1.45
2022-09-20T04:06:19.084Z,1.60
2022-09-20T04:09:02.692Z,1.13
2022-09-20T04:11:43.865Z,1.10
2022-09-20T04:14:25.020Z,1.38
2022-09-20T04:17:01.910Z,1.98
2022-09-20T04:19:36.645Z,1.33
2022-09-20T04:22:07.503Z,1.45
2022-09-20T04:24:43.203Z,1.42
2022-09-20T04:27:18.019Z,1.58
2022-09-20T04:29:54.353Z,1.98
2022-09-20T04:32:30.101Z,1.58
2022-09-20T04:35:21.803Z,1.92
2022-09-20T04:37:51.963Z,2.05
2022-09-20T04:40:38.622Z,2.33
2022-09-20T04:43:28.251Z,3.25
2022-09-20T04:46:39.347Z,2.00
2022-09-20T04:49:42.505Z,1.85
2022-09-20T04:52:35.315Z,2.58
2022-09-20T04:55:31.917Z,2.28
2022-09-20T04:58:28.307Z,1.90
2022-09-20T05:01:32.276Z,1.65
2022-09-20T05:04:45.438Z,1.58
2022-09-20T05:07:52.708Z,1.65
2022-09-20T05:10:46.031Z,1.80
2022-09-20T05:13:23.493Z,1.40
2022-09-20T05:15:59.093Z,2.00
2022-09-20T05:19:05.464Z,1.63
2022-09-20T05:21:58.611Z,2.00
2022-09-20T05:24:53.892Z,1.73
2022-09-20T05:27:33.580Z,2.00
2022-09-20T05:30:08.877Z,2.60
2022-09-20T05:32:47.550Z,1.38
2022-09-20T05:35:24.060Z,1.90
2022-09-20T05:38:04.612Z,1.70
2022-09-20T05:40:39.662Z,2.35
2022-09-20T05:43:13.911Z,2.08
2022-09-20T05:45:52.934Z,2.10
2022-09-20T05:48:29.539Z,2.70
2022-09-20T05:51:03.866Z,2.70
2022-09-20T05:54:08.745Z,2.58
2022-09-20T05:56:46.783Z,3.28
2022-09-20T05:59:29.834Z,2.15
2022-09-20T06:02:20.449Z,2.40
2022-09-20T06:04:57.799Z,3.05
2022-09-20T06:07:33.862Z,2.22
2022-09-20T06:10:23.599Z,2.90
2022-09-20T06:12:58.993Z,2.70
2022-09-20T06:15:34.361Z,1.42
2022-09-20T06:18:11.058Z,1.60
2022-09-20T06:20:49.346Z,2.38
2022-09-20T06:23:18.399Z,2.20
2022-09-20T06:25:56.209Z,2.28
2022-09-20T06:28:27.461Z,2.38
2022-09-20T06:30:57.362Z,1.80
2022-09-20T06:33:26.581Z,2.40
2022-09-20T06:36:19.932Z,2.30
2022-09-20T06:39:13.932Z,2.58
2022-09-20T06:41:44.562Z,2.60
2022-09-20T06:44:12.690Z,3.67
2022-09-20T06:46:41.752Z,3.03
2022-09-20T06:49:10.039Z,2.90
2022-09-20T06:51:40.256Z,2.63
2022-09-20T06:54:15.725Z,1.80
2022-09-20T06:56:47.413Z,2.53
2022-09-20T06:59:15.456Z,2.63
2022-09-20T07:01:43.936Z,3.53
2022-09-20T07:04:11.914Z,2.20
2022-09-20T07:06:40.674Z,2.88
2022-09-20T07:09:08.794Z,2.25
2022-09-20T07:11:36.671Z,3.70
2022-09-20T07:14:08.030Z,1.90
2022-09-20T07:16:37.350Z,2.30
2022-09-20T07:19:06.089Z,3.08
2022-09-20T07:21:33.963Z,2.13
2022-09-20T07:24:02.145Z,1.70
2022-09-20T07:26:31.237Z,3.15
2022-09-20T07:29:00.417Z,3.17
2022-09-20T07:31:30.752Z,3.03
2022-09-20T07:33:58.769Z,3.78
2022-09-20T07:36:26.702Z,2.45
2022-09-20T07:38:55.002Z,3.88
2022-09-20T07:41:23.797Z,3.50
2022-09-20T07:43:52.378Z,1.70
2022-09-20T07:46:22.299Z,3.67
2022-09-20T07:48:52.425Z,4.13
2022-09-20T07:51:20.365Z,3.50
2022-09-20T07:53:48.358Z,2.60
2022-09-20T07:56:18.443Z,3.60
2022-09-20T07:58:50.017Z,3.65
2022-09-20T08:03:49.520Z,3.55
2022-09-20T08:06:18.889Z,3.67
2022-09-20T08:08:46.910Z,3.55
2022-09-20T08:11:17.315Z,4.25
2022-09-20T08:16:39.544Z,3.75
2022-09-20T08:19:07.668Z,3.58
2022-09-20T08:21:39.932Z,2.90
2022-09-20T08:24:08.188Z,2.60
2022-09-20T08:26:37.217Z,3.40
2022-09-20T08:29:06.584Z,3.45
2022-09-20T08:31:38.057Z,3.22
2022-09-20T08:34:08.864Z,2.67
2022-09-20T08:36:41.271Z,3.22
2022-09-20T08:42:02.970Z,3.70
2022-09-20T08:44:35.871Z,2.90
2022-09-20T08:47:14.035Z,3.67
2022-09-20T08:49:46.088Z,2.88
2022-09-20T08:52:20.631Z,3.20
2022-09-20T08:54:48.661Z,3.33
2022-09-20T08:57:19.166Z,4.13
2022-09-20T08:59:47.370Z,3.65
2022-09-20T09:02:18.998Z,2.40
2022-09-20T09:04:48.794Z,2.72
2022-09-20T09:07:21.807Z,3.35
2022-09-20T09:09:53.082Z,3.35
2022-09-20T09:12:25.416Z,2.10
2022-09-20T09:14:56.041Z,3.58
2022-09-20T09:17:28.981Z,3.25
2022-09-20T09:19:58.168Z,3.23
2022-09-20T09:22:35.312Z,2.70
2022-09-20T09:25:24.114Z,2.50
2022-09-20T09:27:54.982Z,3.20
2022-09-20T09:30:26.389Z,2.70
2022-09-20T09:32:59.481Z,2.40
2022-09-20T09:35:31.780Z,2.88
2022-09-20T09:38:02.698Z,2.53
2022-09-20T09:40:33.053Z,2.20
2022-09-20T09:43:02.723Z,2.28
2022-09-20T09:45:38.748Z,2.33
2022-09-20T09:48:24.738Z,3.13
2022-09-20T09:51:09.579Z,2.33
2022-09-20T09:53:40.581Z,2.35
2022-09-20T09:56:21.680Z,2.35
2022-09-20T09:59:12.653Z,3.38
2022-09-20T10:01:48.655Z,2.15
2022-09-20T10:04:22.336Z,2.00
2022-09-20T10:06:59.404Z,2.60
2022-09-20T10:09:46.878Z,3.10
2022-09-20T10:12:29.312Z,2.13
2022-09-20T10:15:14.884Z,2.83
2022-09-20T10:17:54.185Z,2.38
2022-09-20T10:20:33.758Z,1.75
2022-09-20T10:26:21.771Z,2.03
2022-09-20T10:29:00.258Z,3.25
2022-09-20T10:31:42.697Z,2.38
2022-09-20T10:34:29.498Z,2.10
2022-09-20T10:36:59.223Z,2.60
2022-09-20T10:39:33.018Z,1.50
2022-09-20T10:45:11.694Z,1.90
2022-09-20T10:47:50.005Z,1.88
2022-09-20T10:50:28.338Z,1.35
2022-09-20T10:53:19.613Z,1.02
2022-09-20T10:55:59.368Z,1.10
2022-09-20T10:59:04.544Z,1.85
2022-09-20T11:01:40.406Z,1.00
2022-09-20T11:04:31.181Z,1.63
2022-09-20T11:07:11.055Z,1.13
2022-09-20T11:09:43.751Z,1.13
2022-09-20T11:12:18.839Z,1.63
2022-09-20T11:18:06.744Z,1.05
2022-09-20T11:20:40.735Z,1.02
2022-09-20T11:23:19.007Z,1.10
2022-09-20T11:25:51.915Z,1.48
2022-09-20T11:28:27.155Z,1.00
2022-09-20T11:31:03.407Z,1.08
2022-09-20T11:33:41.287Z,1.13
2022-09-20T11:36:14.704Z,1.20
2022-09-20T11:38:53.199Z,1.20
2022-09-20T11:41:26.902Z,1.20
2022-09-20T11:43:56.984Z,1.25
2022-09-20T11:46:31.154Z,1.02
2022-09-20T11:49:04.197Z,1.00
2022-09-20T11:51:52.224Z,1.88
2022-09-20T11:54:37.761Z,1.05
2022-09-20T11:57:08.081Z,1.08
2022-09-20T11:59:38.449Z,0.70
2022-09-20T12:02:21.850Z,0.95
2022-09-20T12:04:53.438Z,0.80
2022-09-20T12:07:25.746Z,0.47
2022-09-20T12:09:57.432Z,0.70
2022-09-20T12:12:34.638Z,0.95
2022-09-20T12:15:06.069Z,0.70
2022-09-20T12:18:13.819Z,0.57
2022-09-20T12:21:16.934Z,1.05
2022-09-20T12:24:09.854Z,0.63
2022-09-20T12:26:46.162Z,1.13
2022-09-20T12:29:54.332Z,1.42
2022-09-20T12:32:41.918Z,0.73
2022-09-20T12:35:59.373Z,0.75
2022-09-20T12:38:35.992Z,1.15
2022-09-20T12:41:08.053Z,0.75
2022-09-20T12:43:38.369Z,0.73
2022-09-20T12:46:11.899Z,0.60
2022-09-20T12:48:40.246Z,0.60
2022-09-20T12:51:40.143Z,1.13
2022-09-20T12:54:12.392Z,0.30
2022-09-20T12:56:46.263Z,0.63
2022-09-20T12:59:24.289Z,0.80
2022-09-20T13:01:52.616Z,0.80
2022-09-20T13:04:55.501Z,0.75
2022-09-20T13:07:47.652Z,1.00
2022-09-20T13:10:30.483Z,0.77
2022-09-20T13:13:29.063Z,0.63
2022-09-20T13:15:58.215Z,0.28
2022-09-20T13:18:28.816Z,0.40
2022-09-20T13:21:00.413Z,0.70
2022-09-20T13:23:30.725Z,0.90
2022-09-20T13:26:02.324Z,0.50
2022-09-20T13:28:36.182Z,0.40
2022-09-20T13:31:26.974Z,0.52
2022-09-20T13:33:55.675Z,0.80
2022-09-20T13:36:28.838Z,0.25
2022-09-20T13:38:58.466Z,0.50
2022-09-20T13:41:33.721Z,1.15
2022-09-20T13:44:02.461Z,0.75
2022-09-20T13:46:32.544Z,0.85
2022-09-20T13:49:15.133Z,0.60
2022-09-20T13:51:43.061Z,0.50
2022-09-20T13:54:25.753Z,1.33
2022-09-20T13:56:56.687Z,0.47
2022-09-20T13:59:27.465Z,0.90
2022-09-20T14:01:56.905Z,1.10
2022-09-20T14:04:26.895Z,0.77
2022-09-20T14:06:57.342Z,0.52
2022-09-20T14:09:30.570Z,0.73
2022-09-20T14:12:01.006Z,0.57
2022-09-20T14:14:31.424Z,0.60
2022-09-20T14:17:02.382Z,0.70
2022-09-20T14:19:34.902Z,0.55
2022-09-20T14:22:05.386Z,1.20
2022-09-20T14:24:36.964Z,0.82
2022-09-20T14:27:18.262Z,0.70
2022-09-20T14:29:47.423Z,0.90
2022-09-20T14:32:38.397Z,0.57
2022-09-20T14:35:12.952Z,0.90
2022-09-20T14:37:44.982Z,0.77
2022-09-20T14:40:22.532Z,1.15
2022-09-20T14:42:55.111Z,1.20
2022-09-20T14:45:30.456Z,0.80
2022-09-20T14:48:11.001Z,0.80
2022-09-20T14:50:41.347Z,0.63
2022-09-20T14:53:27.797Z,0.88
2022-09-20T14:56:11.554Z,0.60
2022-09-20T14:59:03.985Z,0.70
2022-09-20T15:01:32.423Z,0.57
2022-09-20T15:04:01.523Z,0.82
2022-09-20T15:06:29.441Z,0.80
2022-09-20T15:08:57.547Z,1.00
2022-09-20T15:11:25.403Z,0.60
2022-09-20T15:13:53.335Z,0.98
2022-09-20T15:16:22.924Z,0.63
2022-09-20T15:18:50.881Z,0.75
2022-09-20T15:21:19.602Z,0.70
2022-09-20T15:23:47.500Z,0.38
2022-09-20T15:26:15.964Z,1.30
2022-09-20T15:28:43.883Z,0.73
2022-09-20T15:31:13.702Z,1.70
2022-09-20T15:33:43.052Z,0.85
2022-09-20T15:36:11.975Z,0.90
2022-09-20T15:38:39.876Z,1.00
2022-09-20T15:41:08.337Z,0.60
2022-09-20T15:43:36.218Z,0.82
2022-09-20T15:46:19.655Z,1.17
2022-09-20T15:48:49.581Z,0.90
2022-09-20T15:51:18.025Z,1.20
2022-09-20T15:53:48.758Z,1.10
2022-09-20T15:56:22.317Z,1.25
2022-09-20T15:58:51.549Z,1.05
2022-09-20T16:01:20.174Z,1.08
2022-09-20T16:03:51.196Z,0.90
2022-09-20T16:06:19.494Z,1.15
2022-09-20T16:08:47.740Z,0.70
2022-09-20T16:11:21.741Z,0.70
2022-09-20T16:13:54.711Z,1.08
2022-09-20T16:16:22.780Z,0.88
2022-09-20T16:19:09.563Z,0.80
2022-09-20T16:21:39.263Z,0.80
2022-09-20T16:24:08.425Z,0.82
2022-09-20T16:26:37.394Z,1.30
2022-09-20T16:29:07.461Z,1.33
2022-09-20T16:31:40.052Z,0.98
2022-09-20T16:34:14.418Z,0.73
2022-09-20T16:36:43.482Z,1.05
2022-09-20T16:39:12.440Z,1.15
2022-09-20T16:41:40.966Z,0.90
2022-09-20T16:44:09.009Z,1.85
2022-09-20T16:46:37.577Z,1.02
2022-09-20T16:49:09.414Z,1.10
2022-09-20T16:51:40.357Z,1.33
2022-09-20T16:54:12.272Z,1.38
2022-09-20T16:56:42.110Z,1.75
2022-09-20T16:59:11.039Z,1.40
2022-09-20T17:01:42.162Z,1.10
2022-09-20T17:04:15.327Z,1.45
2022-09-20T17:06:46.033Z,2.05
2022-09-20T17:09:15.868Z,5.13
2022-09-20T17:11:45.835Z,2.35
2022-09-20T17:14:15.150Z,1.77
2022-09-20T17:16:43.619Z,1.52
2022-09-20T17:19:13.527Z,1.08
2022-09-20T17:21:46.184Z,1.05
2022-09-20T17:24:15.566Z,1.52
2022-09-20T17:26:45.506Z,0.90
2022-09-20T17:29:15.688Z,1.60
2022-09-20T17:31:48.791Z,1.30
2022-09-20T17:34:21.926Z,0.80
2022-09-20T17:36:50.947Z,1.65
2022-09-20T17:39:20.407Z,1.20
2022-09-20T17:41:49.825Z,1.40
2022-09-20T17:44:18.076Z,1.92
2022-09-20T17:46:48.407Z,1.60
2022-09-20T17:49:18.168Z,0.82
2022-09-20T17:51:47.717Z,1.27
2022-09-20T17:54:16.363Z,1.17
2022-09-20T17:56:47.203Z,1.40
2022-09-20T17:59:16.792Z,1.25
2022-09-20T18:01:46.258Z,1.10
2022-09-20T18:04:14.672Z,1.63
2022-09-20T18:06:45.911Z,1.60
2022-09-20T18:09:16.536Z,1.65
2022-09-20T18:11:49.146Z,1.30
2022-09-20T18:14:18.219Z,1.40
2022-09-20T18:16:46.633Z,0.88
2022-09-20T18:19:16.153Z,1.40
2022-09-20T18:21:44.892Z,2.88
2022-09-20T18:24:13.203Z,1.73
2022-09-20T18:26:42.100Z,1.27
2022-09-20T18:29:12.909Z,1.65
2022-09-20T18:31:43.282Z,1.95
2022-09-20T18:34:15.518Z,2.60
2022-09-20T18:36:43.557Z,2.38
2022-09-20T18:39:14.227Z,2.00
2022-09-20T18:41:44.091Z,1.83
2022-09-20T18:44:14.809Z,1.70
2022-09-20T18:46:43.363Z,2.08
2022-09-20T18:49:15.141Z,1.95
2022-09-20T18:51:46.816Z,2.00
2022-09-20T18:54:19.052Z,1.80
2022-09-20T18:56:54.844Z,2.40
2022-09-20T18:59:32.045Z,1.95
2022-09-20T19:02:25.051Z,1.85
2022-09-20T19:05:09.324Z,1.73
2022-09-20T19:07:50.115Z,2.35
2022-09-20T19:10:28.329Z,1.70
2022-09-20T19:13:02.384Z,1.90
2022-09-20T19:15:49.418Z,1.40
2022-09-20T19:18:50.140Z,2.10
2022-09-20T19:21:25.347Z,1.85
2022-09-20T19:24:08.606Z,1.80
2022-09-20T19:26:38.703Z,2.08
2022-09-20T19:29:19.710Z,1.42
2022-09-20T19:31:51.553Z,1.27
2022-09-20T19:34:22.232Z,1.95
2022-09-20T19:37:02.978Z,1.63
2022-09-20T19:39:42.103Z,1.50
2022-09-20T19:42:24.861Z,1.83
2022-09-20T19:45:03.773Z,1.30
2022-09-20T19:47:45.118Z,1.55
2022-09-20T19:50:17.302Z,1.52
2022-09-20T19:52:46.108Z,1.38
2022-09-20T19:55:18.049Z,1.55
2022-09-20T19:57:47.957Z,1.55
2022-09-20T20:00:18.571Z,1.23
2022-09-20T20:02:49.275Z,1.48
2022-09-20T20:05:20.115Z,1.48
2022-09-20T20:07:53.544Z,1.55
2022-09-20T20:10:29.344Z,1.83
2022-09-20T20:13:04.400Z,1.05
2022-09-20T20:15:45.563Z,1.10
2022-09-20T20:18:27.847Z,0.95
2022-09-20T20:20:57.819Z,1.77
2022-09-20T20:23:48.993Z,1.80
2022-09-20T20:26:21.719Z,0.95
2022-09-20T20:28:50.895Z,0.70
2022-09-20T20:31:19.090Z,1.08
2022-09-20T20:33:48.485Z,1.27
2022-09-20T20:36:17.681Z,1.17
2022-09-20T20:38:49.923Z,1.23
2022-09-20T20:41:20.500Z,1.40
2022-09-20T20:43:49.447Z,1.30
2022-09-20T20:46:19.735Z,1.10
2022-09-20T20:48:49.064Z,1.30
2022-09-20T20:51:18.613Z,1.42
2022-09-20T20:53:48.228Z,1.35
2022-09-20T20:56:18.638Z,1.30
2022-09-20T20:58:47.669Z,1.17
2022-09-20T21:01:17.661Z,1.33
2022-09-20T21:03:49.850Z,1.60
2022-09-20T21:06:18.324Z,1.58
2022-09-20T21:08:49.609Z,1.40
2022-09-20T21:11:20.535Z,1.33
2022-09-20T21:13:49.057Z,1.05
2022-09-20T21:16:18.805Z,1.23
2022-09-20T21:18:49.417Z,1.23
2022-09-20T21:21:19.534Z,1.42
2022-09-20T21:23:49.087Z,1.83
2022-09-20T21:26:17.720Z,2.05
2022-09-20T21:28:48.882Z,1.63
2022-09-20T21:31:16.837Z,1.15
2022-09-20T21:33:45.083Z,1.42
2022-09-20T21:36:16.158Z,1.73
2022-09-20T21:38:45.285Z,1.15
2022-09-20T21:41:15.249Z,1.40
2022-09-20T21:43:44.674Z,1.70
2022-09-20T21:46:13.556Z,1.45
2022-09-20T21:48:41.791Z,1.58
2022-09-20T21:51:13.873Z,1.58
2022-09-20T21:53:43.542Z,1.20
2022-09-20T21:56:13.618Z,1.27
2022-09-20T21:58:41.797Z,1.55
2022-09-20T22:01:11.957Z,1.52
2022-09-20T22:03:41.799Z,2.10
2022-09-20T22:06:12.432Z,1.23
2022-09-20T22:08:46.537Z,1.23
2022-09-20T22:11:16.224Z,1.20
2022-09-20T22:13:44.961Z,1.23
2022-09-20T22:16:15.754Z,1.50
2022-09-20T22:18:45.345Z,1.40
2022-09-20T22:21:15.398Z,1.45
2022-09-20T22:23:45.694Z,1.48
2022-09-20T22:26:15.734Z,1.75
2022-09-20T22:28:44.000Z,1.20
2022-09-20T22:31:13.514Z,2.13
2022-09-20T22:33:43.412Z,1.90
2022-09-20T22:36:14.091Z,1.40
2022-09-20T22:38:42.358Z,1.20
2022-09-20T22:41:12.606Z,2.17
2022-09-20T22:43:41.807Z,1.75
2022-09-20T22:46:10.934Z,1.58
2022-09-20T22:48:39.157Z,1.77
2022-09-20T22:51:09.257Z,1.30
2022-09-20T22:53:37.751Z,1.40
2022-09-20T22:56:07.328Z,1.23
2022-09-20T22:58:38.521Z,1.08
2022-09-20T23:01:11.724Z,1.52
2022-09-20T23:03:40.959Z,1.20
2022-09-20T23:06:13.839Z,1.25
2022-09-20T23:08:41.776Z,1.67
2022-09-20T23:11:10.000Z,1.00
2022-09-20T23:13:39.722Z,1.63
2022-09-20T23:16:15.162Z,2.25
2022-09-20T23:18:43.444Z,1.70
2022-09-20T23:21:11.430Z,1.02
2022-09-20T23:23:41.670Z,1.65
2022-09-20T23:26:11.771Z,1.45
2022-09-20T23:28:43.548Z,1.42
2022-09-20T23:31:13.394Z,1.55
2022-09-20T23:33:46.494Z,1.48
2022-09-20T23:36:14.665Z,1.90
2022-09-20T23:38:42.679Z,1.35
2022-09-20T23:41:13.138Z,1.05
2022-09-20T23:43:43.585Z,1.38
2022-09-20T23:46:12.713Z,1.30
2022-09-20T23:48:42.300Z,1.45
2022-09-20T23:51:12.644Z,1.13
2022-09-20T23:53:41.104Z,1.40
2022-09-20T23:56:09.760Z,1.40
2022-09-20T23:58:39.030Z,1.90
